sensor_id;sensor_type;location;lat;lon;timestamp;pressure;altitude;pressure_sealevel;temperature;humidity
84995;BME280;75312;47.528;19.016;2024-02-15T00:00:00;99637.47;;;8.07;63.46
84995;BME280;75312;47.528;19.016;2024-02-15T00:00:32;99629.50;;;8.09;63.66
84995;BME280;75312;47.528;19.016;2024-02-15T00:01:04;99627.94;;;8.06;64.05
84995;BME280;75312;47.528;19.016;2024-02-15T00:01:38;99637.34;;;8.09;63.31
84995;BME280;75312;47.528;19.016;2024-02-15T00:02:12;99631.88;;;8.12;63.04
84995;BME280;75312;47.528;19.016;2024-02-15T00:02:43;99628.19;;;8.14;63.54
84995;BME280;75312;47.528;19.016;2024-02-15T00:03:17;99627.47;;;8.12;63.20
84995;BME280;75312;47.528;19.016;2024-02-15T00:03:47;99628.19;;;8.14;63.56
84995;BME280;75312;47.528;19.016;2024-02-15T00:04:20;99630.56;;;8.17;63.56
84995;BME280;75312;47.528;19.016;2024-02-15T00:04:51;99635.56;;;8.21;63.33
84995;BME280;75312;47.528;19.016;2024-02-15T00:05:26;99632.00;;;8.22;63.62
84995;BME280;75312;47.528;19.016;2024-02-15T00:05:59;99632.94;;;8.21;63.19
84995;BME280;75312;47.528;19.016;2024-02-15T00:06:32;99632.00;;;8.22;63.57
84995;BME280;75312;47.528;19.016;2024-02-15T00:07:05;99637.00;;;8.25;63.12
84995;BME280;75312;47.528;19.016;2024-02-15T00:07:38;99628.41;;;8.23;62.75
84995;BME280;75312;47.528;19.016;2024-02-15T00:08:11;99630.31;;;8.21;62.71
84995;BME280;75312;47.528;19.016;2024-02-15T00:08:42;99629.00;;;8.15;63.15
84995;BME280;75312;47.528;19.016;2024-02-15T00:09:12;99634.84;;;8.18;63.00
84995;BME280;75312;47.528;19.016;2024-02-15T00:09:43;99627.59;;;8.22;63.28
84995;BME280;75312;47.528;19.016;2024-02-15T00:10:18;99623.59;;;8.18;63.00
84995;BME280;75312;47.528;19.016;2024-02-15T00:10:53;99629.16;;;8.25;62.93
84995;BME280;75312;47.528;19.016;2024-02-15T00:11:24;99631.66;;;8.26;63.01
84995;BME280;75312;47.528;19.016;2024-02-15T00:11:56;99630.56;;;8.29;63.18
84995;BME280;75312;47.528;19.016;2024-02-15T00:12:26;99639.69;;;8.23;63.14
84995;BME280;75312;47.528;19.016;2024-02-15T00:12:59;99637.81;;;8.25;63.31
84995;BME280;75312;47.528;19.016;2024-02-15T00:13:30;99630.69;;;8.27;62.86
84995;BME280;75312;47.528;19.016;2024-02-15T00:14:03;99630.44;;;8.30;62.86
84995;BME280;75312;47.528;19.016;2024-02-15T00:14:34;99631.88;;;8.23;63.59
84995;BME280;75312;47.528;19.016;2024-02-15T00:15:05;99630.81;;;8.26;63.23
84995;BME280;75312;47.528;19.016;2024-02-15T00:15:38;99629.25;;;8.23;62.67
84995;BME280;75312;47.528;19.016;2024-02-15T00:16:13;99628.78;;;8.18;62.91
84995;BME280;75312;47.528;19.016;2024-02-15T00:16:43;99630.31;;;8.21;63.34
84995;BME280;75312;47.528;19.016;2024-02-15T00:17:14;99633.91;;;8.19;62.89
84995;BME280;75312;47.528;19.016;2024-02-15T00:17:48;99624.97;;;8.22;62.96
84995;BME280;75312;47.528;19.016;2024-02-15T00:18:24;99634.00;;;8.29;63.02
84995;BME280;75312;47.528;19.016;2024-02-15T00:18:55;99632.09;;;8.31;62.58
84995;BME280;75312;47.528;19.016;2024-02-15T00:19:25;99629.16;;;8.36;62.39
84995;BME280;75312;47.528;19.016;2024-02-15T00:20:00;99635.81;;;8.40;62.79
84995;BME280;75312;47.528;19.016;2024-02-15T00:20:31;99639.38;;;8.39;62.13
84995;BME280;75312;47.528;19.016;2024-02-15T00:21:04;99633.19;;;8.40;62.53
84995;BME280;75312;47.528;19.016;2024-02-15T00:21:34;99635.69;;;8.41;62.53
84995;BME280;75312;47.528;19.016;2024-02-15T00:22:08;99633.09;;;8.41;62.47
84995;BME280;75312;47.528;19.016;2024-02-15T00:22:41;99628.56;;;8.43;61.69
84995;BME280;75312;47.528;19.016;2024-02-15T00:23:15;99629.28;;;8.45;62.00
84995;BME280;75312;47.528;19.016;2024-02-15T00:23:48;99631.75;;;8.47;61.99
84995;BME280;75312;47.528;19.016;2024-02-15T00:24:19;99632.47;;;8.49;61.62
84995;BME280;75312;47.528;19.016;2024-02-15T00:24:52;99635.06;;;8.49;61.53
84995;BME280;75312;47.528;19.016;2024-02-15T00:25:25;99629.84;;;8.49;61.50
84995;BME280;75312;47.528;19.016;2024-02-15T00:25:56;99625.59;;;8.48;61.88
84995;BME280;75312;47.528;19.016;2024-02-15T00:26:26;99627.50;;;8.46;62.18
84995;BME280;75312;47.528;19.016;2024-02-15T00:26:57;99624.06;;;8.45;61.66
84995;BME280;75312;47.528;19.016;2024-02-15T00:27:28;99631.88;;;8.45;62.10
84995;BME280;75312;47.528;19.016;2024-02-15T00:28:01;99629.16;;;8.47;62.23
84995;BME280;75312;47.528;19.016;2024-02-15T00:28:32;99636.75;;;8.50;61.51
84995;BME280;75312;47.528;19.016;2024-02-15T00:29:04;99627.25;;;8.49;61.90
84995;BME280;75312;47.528;19.016;2024-02-15T00:29:37;99626.31;;;8.50;62.33
84995;BME280;75312;47.528;19.016;2024-02-15T00:30:08;99623.94;;;8.47;62.08
84995;BME280;75312;47.528;19.016;2024-02-15T00:30:41;99626.53;;;8.47;62.23
84995;BME280;75312;47.528;19.016;2024-02-15T00:31:12;99627.50;;;8.46;62.15
84995;BME280;75312;47.528;19.016;2024-02-15T00:31:43;99627.38;;;8.48;62.14
84995;BME280;75312;47.528;19.016;2024-02-15T00:32:16;99632.38;;;8.51;61.77
84995;BME280;75312;47.528;19.016;2024-02-15T00:32:49;99626.19;;;8.52;61.50
84995;BME280;75312;47.528;19.016;2024-02-15T00:33:19;99623.44;;;8.53;62.08
84995;BME280;75312;47.528;19.016;2024-02-15T00:33:55;99625.09;;;8.54;61.27
84995;BME280;75312;47.528;19.016;2024-02-15T00:34:25;99625.81;;;8.56;61.81
84995;BME280;75312;47.528;19.016;2024-02-15T00:34:59;99624.84;;;8.57;61.38
84995;BME280;75312;47.528;19.016;2024-02-15T00:35:32;99623.81;;;8.60;61.22
84995;BME280;75312;47.528;19.016;2024-02-15T00:36:05;99621.31;;;8.58;61.62
84995;BME280;75312;47.528;19.016;2024-02-15T00:36:36;99622.16;;;8.59;61.19
84995;BME280;75312;47.528;19.016;2024-02-15T00:37:07;99622.16;;;8.59;60.81
84995;BME280;75312;47.528;19.016;2024-02-15T00:37:37;99621.31;;;8.58;60.92
84995;BME280;75312;47.528;19.016;2024-02-15T00:38:08;99624.63;;;8.60;60.59
84995;BME280;75312;47.528;19.016;2024-02-15T00:38:41;99624.63;;;8.60;61.41
84995;BME280;75312;47.528;19.016;2024-02-15T00:39:13;99611.44;;;8.62;60.57
84995;BME280;75312;47.528;19.016;2024-02-15T00:39:48;99620.09;;;8.62;60.35
84995;BME280;75312;47.528;19.016;2024-02-15T00:40:19;99623.41;;;8.64;60.63
84995;BME280;75312;47.528;19.016;2024-02-15T00:40:55;99619.97;;;8.64;60.66
84995;BME280;75312;47.528;19.016;2024-02-15T00:41:25;99624.16;;;8.66;60.02
84995;BME280;75312;47.528;19.016;2024-02-15T00:41:56;99620.59;;;8.67;60.58
84995;BME280;75312;47.528;19.016;2024-02-15T00:42:26;99619.75;;;8.67;60.39
84995;BME280;75312;47.528;19.016;2024-02-15T00:43:01;99618.69;;;8.69;59.99
84995;BME280;75312;47.528;19.016;2024-02-15T00:43:34;99622.13;;;8.70;60.20
84995;BME280;75312;47.528;19.016;2024-02-15T00:44:08;99626.50;;;8.69;60.17
84995;BME280;75312;47.528;19.016;2024-02-15T00:44:39;99620.19;;;8.72;59.49
84995;BME280;75312;47.528;19.016;2024-02-15T00:45:09;99623.63;;;8.72;59.50
84995;BME280;75312;47.528;19.016;2024-02-15T00:45:40;99620.34;;;8.70;59.92
84995;BME280;75312;47.528;19.016;2024-02-15T00:46:14;99625.56;;;8.70;59.61
84995;BME280;75312;47.528;19.016;2024-02-15T00:46:45;99619.50;;;8.70;60.17
84995;BME280;75312;47.528;19.016;2024-02-15T00:47:18;99622.94;;;8.70;59.99
84995;BME280;75312;47.528;19.016;2024-02-15T00:47:51;99629.00;;;8.71;59.86
84995;BME280;75312;47.528;19.016;2024-02-15T00:48:25;99628.03;;;8.72;59.60
84995;BME280;75312;47.528;19.016;2024-02-15T00:48:58;99621.97;;;8.71;59.43
84995;BME280;75312;47.528;19.016;2024-02-15T00:49:30;99626.25;;;8.72;59.64
84995;BME280;75312;47.528;19.016;2024-02-15T00:50:03;99622.69;;;8.73;59.38
84995;BME280;75312;47.528;19.016;2024-02-15T00:50:34;99620.06;;;8.73;59.04
84995;BME280;75312;47.528;19.016;2024-02-15T00:51:07;99623.63;;;8.72;59.56
84995;BME280;75312;47.528;19.016;2024-02-15T00:51:38;99625.28;;;8.73;59.32
84995;BME280;75312;47.528;19.016;2024-02-15T00:52:08;99630.53;;;8.73;59.28
84995;BME280;75312;47.528;19.016;2024-02-15T00:52:41;99626.25;;;8.72;59.28
84995;BME280;75312;47.528;19.016;2024-02-15T00:53:14;99632.22;;;8.74;59.32
84995;BME280;75312;47.528;19.016;2024-02-15T00:53:50;99629.81;;;8.71;59.26
84995;BME280;75312;47.528;19.016;2024-02-15T00:54:23;99633.66;;;8.67;59.34
84995;BME280;75312;47.528;19.016;2024-02-15T00:54:53;99627.47;;;8.68;60.04
84995;BME280;75312;47.528;19.016;2024-02-15T00:55:26;99625.91;;;8.66;60.23
84995;BME280;75312;47.528;19.016;2024-02-15T00:55:57;99631.50;;;8.61;60.44
84995;BME280;75312;47.528;19.016;2024-02-15T00:56:28;99628.41;;;8.56;60.54
84995;BME280;75312;47.528;19.016;2024-02-15T00:57:04;99628.41;;;8.56;60.52
84995;BME280;75312;47.528;19.016;2024-02-15T00:57:37;99626.41;;;8.49;61.16
84995;BME280;75312;47.528;19.016;2024-02-15T00:58:10;99631.06;;;8.45;61.19
84995;BME280;75312;47.528;19.016;2024-02-15T00:58:43;99636.88;;;8.37;62.24
84995;BME280;75312;47.528;19.016;2024-02-15T00:59:16;99632.22;;;8.30;63.03
84995;BME280;75312;47.528;19.016;2024-02-15T00:59:46;99637.44;;;8.30;63.61
84995;BME280;75312;47.528;19.016;2024-02-15T01:00:18;99633.75;;;8.32;63.98
84995;BME280;75312;47.528;19.016;2024-02-15T01:00:48;99640.06;;;8.30;64.55
84995;BME280;75312;47.528;19.016;2024-02-15T01:01:19;99636.63;;;8.29;65.05
84995;BME280;75312;47.528;19.016;2024-02-15T01:01:53;99636.63;;;8.29;64.60
84995;BME280;75312;47.528;19.016;2024-02-15T01:02:23;99635.78;;;8.29;64.94
84995;BME280;75312;47.528;19.016;2024-02-15T01:02:58;99636.03;;;8.26;64.72
84995;BME280;75312;47.528;19.016;2024-02-15T01:03:28;99632.69;;;8.24;65.48
84995;BME280;75312;47.528;19.016;2024-02-15T01:04:05;99629.03;;;8.26;64.78
84995;BME280;75312;47.528;19.016;2024-02-15T01:04:35;99634.13;;;8.28;63.99
84995;BME280;75312;47.528;19.016;2024-02-15T01:05:09;99639.47;;;8.26;62.99
84995;BME280;75312;47.528;19.016;2024-02-15T01:05:40;99633.88;;;8.31;62.83
84995;BME280;75312;47.528;19.016;2024-02-15T01:06:13;99635.22;;;8.25;62.86
84995;BME280;75312;47.528;19.016;2024-02-15T01:06:45;99631.03;;;8.23;62.95
84995;BME280;75312;47.528;19.016;2024-02-15T01:07:16;99628.34;;;8.24;63.12
84995;BME280;75312;47.528;19.016;2024-02-15T01:07:47;99633.56;;;8.35;63.13
84995;BME280;75312;47.528;19.016;2024-02-15T01:08:20;99641.41;;;8.35;62.96
84995;BME280;75312;47.528;19.016;2024-02-15T01:08:50;99638.88;;;8.34;63.22
84995;BME280;75312;47.528;19.016;2024-02-15T01:09:25;99632.94;;;8.32;63.48
84995;BME280;75312;47.528;19.016;2024-02-15T01:09:56;99633.88;;;8.31;63.34
84995;BME280;75312;47.528;19.016;2024-02-15T01:10:26;99633.06;;;8.30;63.77
84995;BME280;75312;47.528;19.016;2024-02-15T01:10:57;99637.09;;;8.23;63.88
84995;BME280;75312;47.528;19.016;2024-02-15T01:11:27;99645.88;;;8.22;64.91
84995;BME280;75312;47.528;19.016;2024-02-15T01:12:02;99631.03;;;8.23;65.13
84995;BME280;75312;47.528;19.016;2024-02-15T01:12:35;99630.06;;;8.24;65.34
84995;BME280;75312;47.528;19.016;2024-02-15T01:13:06;99638.16;;;8.21;65.12
84995;BME280;75312;47.528;19.016;2024-02-15T01:13:36;99634.47;;;8.12;65.71
84995;BME280;75312;47.528;19.016;2024-02-15T01:14:07;99634.59;;;8.10;65.89
84995;BME280;75312;47.528;19.016;2024-02-15T01:14:42;99637.78;;;8.14;66.14
84995;BME280;75312;47.528;19.016;2024-02-15T01:15:14;99635.94;;;8.16;65.59
84995;BME280;75312;47.528;19.016;2024-02-15T01:15:48;99632.25;;;8.18;65.95
84995;BME280;75312;47.528;19.016;2024-02-15T01:16:19;99638.16;;;8.21;65.65
84995;BME280;75312;47.528;19.016;2024-02-15T01:16:54;99629.25;;;8.23;65.83
84995;BME280;75312;47.528;19.016;2024-02-15T01:17:27;99632.94;;;8.21;65.53
84995;BME280;75312;47.528;19.016;2024-02-15T01:17:58;99631.41;;;8.18;66.23
84995;BME280;75312;47.528;19.016;2024-02-15T01:18:30;99637.34;;;8.20;65.39
84995;BME280;75312;47.528;19.016;2024-02-15T01:19:02;99632.44;;;8.15;66.26
84995;BME280;75312;47.528;19.016;2024-02-15T01:19:32;99625.81;;;8.11;66.54
84995;BME280;75312;47.528;19.016;2024-02-15T01:20:03;99632.59;;;8.03;66.68
84995;BME280;75312;47.528;19.016;2024-02-15T01:20:36;99636.28;;;8.00;67.05
84995;BME280;75312;47.528;19.016;2024-02-15T01:21:07;99634.38;;;7.91;66.53
84995;BME280;75312;47.528;19.016;2024-02-15T01:21:37;99634.94;;;7.95;67.05
84995;BME280;75312;47.528;19.016;2024-02-15T01:22:08;99634.00;;;7.96;66.58
84995;BME280;75312;47.528;19.016;2024-02-15T01:22:39;99633.88;;;7.86;66.95
84995;BME280;75312;47.528;19.016;2024-02-15T01:23:12;99635.47;;;7.65;67.05
84995;BME280;75312;47.528;19.016;2024-02-15T01:23:47;99642.03;;;7.70;67.10
84995;BME280;75312;47.528;19.016;2024-02-15T01:24:18;99639.78;;;7.66;67.13
84995;BME280;75312;47.528;19.016;2024-02-15T01:24:51;99640.81;;;7.63;67.31
84995;BME280;75312;47.528;19.016;2024-02-15T01:25:21;99640.59;;;7.66;67.78
84995;BME280;75312;47.528;19.016;2024-02-15T01:25:52;99641.44;;;7.67;67.52
84995;BME280;75312;47.528;19.016;2024-02-15T01:26:26;99643.22;;;7.66;67.90
84995;BME280;75312;47.528;19.016;2024-02-15T01:26:59;99640.69;;;7.65;67.36
84995;BME280;75312;47.528;19.016;2024-02-15T01:27:32;99634.78;;;7.62;67.96
84995;BME280;75312;47.528;19.016;2024-02-15T01:28:04;99627.66;;;7.65;67.72
84995;BME280;75312;47.528;19.016;2024-02-15T01:28:34;99633.50;;;7.68;68.30
84995;BME280;75312;47.528;19.016;2024-02-15T01:29:05;99630.75;;;7.70;67.69
84995;BME280;75312;47.528;19.016;2024-02-15T01:29:42;99631.13;;;7.76;67.76
84995;BME280;75312;47.528;19.016;2024-02-15T01:30:13;99629.47;;;7.75;67.96
84995;BME280;75312;47.528;19.016;2024-02-15T01:30:44;99633.75;;;7.76;67.73
84995;BME280;75312;47.528;19.016;2024-02-15T01:31:18;99627.91;;;7.73;67.90
84995;BME280;75312;47.528;19.016;2024-02-15T01:31:52;99633.97;;;7.73;68.25
84995;BME280;75312;47.528;19.016;2024-02-15T01:32:25;99635.84;;;7.71;68.27
84995;BME280;75312;47.528;19.016;2024-02-15T01:32:58;99629.34;;;7.66;68.36
84995;BME280;75312;47.528;19.016;2024-02-15T01:33:29;99629.34;;;7.66;68.62
84995;BME280;75312;47.528;19.016;2024-02-15T01:33:59;99634.66;;;7.64;68.37
84995;BME280;75312;47.528;19.016;2024-02-15T01:34:35;99636.09;;;7.57;68.63
84995;BME280;75312;47.528;19.016;2024-02-15T01:35:06;99634.19;;;7.59;69.01
84995;BME280;75312;47.528;19.016;2024-02-15T01:35:40;99635.84;;;7.60;68.88
84995;BME280;75312;47.528;19.016;2024-02-15T01:36:14;99629.94;;;7.58;68.81
84995;BME280;75312;47.528;19.016;2024-02-15T01:36:48;99637.63;;;7.59;68.80
84995;BME280;75312;47.528;19.016;2024-02-15T01:37:22;99630.88;;;7.68;68.68
84995;BME280;75312;47.528;19.016;2024-02-15T01:37:55;99630.75;;;7.70;68.15
84995;BME280;75312;47.528;19.016;2024-02-15T01:38:26;99632.66;;;7.68;68.45
84995;BME280;75312;47.528;19.016;2024-02-15T01:38:59;99640.38;;;7.69;68.78
84995;BME280;75312;47.528;19.016;2024-02-15T01:39:32;99634.31;;;7.69;68.23
84995;BME280;75312;47.528;19.016;2024-02-15T01:40:04;99643.69;;;7.71;68.17
84995;BME280;75312;47.528;19.016;2024-02-15T01:40:36;99636.56;;;7.73;68.72
84995;BME280;75312;47.528;19.016;2024-02-15T01:41:08;99632.09;;;7.75;68.44
84995;BME280;75312;47.528;19.016;2024-02-15T01:41:38;99633.75;;;7.76;68.49
84995;BME280;75312;47.528;19.016;2024-02-15T01:42:09;99638.97;;;7.76;68.77
84995;BME280;75312;47.528;19.016;2024-02-15T01:42:39;99634.81;;;7.74;68.22
84995;BME280;75312;47.528;19.016;2024-02-15T01:43:10;99634.31;;;7.69;68.13
84995;BME280;75312;47.528;19.016;2024-02-15T01:43:44;99627.44;;;7.68;68.65
84995;BME280;75312;47.528;19.016;2024-02-15T01:44:16;99632.28;;;7.61;68.54
84995;BME280;75312;47.528;19.016;2024-02-15T01:44:48;99626.38;;;7.59;68.68
84995;BME280;75312;47.528;19.016;2024-02-15T01:45:23;99636.78;;;7.59;69.31
84995;BME280;75312;47.528;19.016;2024-02-15T01:45:57;99631.34;;;7.62;68.98
84995;BME280;75312;47.528;19.016;2024-02-15T01:46:33;99630.19;;;7.66;69.15
84995;BME280;75312;47.528;19.016;2024-02-15T01:47:04;99636.81;;;7.70;68.73
84995;BME280;75312;47.528;19.016;2024-02-15T01:47:35;99636.81;;;7.70;69.16
84995;BME280;75312;47.528;19.016;2024-02-15T01:48:06;99633.50;;;7.68;68.48
84995;BME280;75312;47.528;19.016;2024-02-15T01:48:37;99628.63;;;7.63;69.13
84995;BME280;75312;47.528;19.016;2024-02-15T01:49:12;99625.41;;;7.60;68.96
84995;BME280;75312;47.528;19.016;2024-02-15T01:49:46;99641.19;;;7.58;68.47
84995;BME280;75312;47.528;19.016;2024-02-15T01:50:23;99636.56;;;7.62;68.52
84995;BME280;75312;47.528;19.016;2024-02-15T01:50:54;99632.88;;;7.65;68.24
84995;BME280;75312;47.528;19.016;2024-02-15T01:51:27;99635.72;;;7.61;68.25
84995;BME280;75312;47.528;19.016;2024-02-15T01:51:58;99629.34;;;7.66;68.37
84995;BME280;75312;47.528;19.016;2024-02-15T01:52:31;99628.28;;;7.68;68.26
84995;BME280;75312;47.528;19.016;2024-02-15T01:53:07;99624.84;;;7.68;68.44
84995;BME280;75312;47.528;19.016;2024-02-15T01:53:38;99633.00;;;7.63;68.72
84995;BME280;75312;47.528;19.016;2024-02-15T01:54:12;99632.28;;;7.61;68.89
84995;BME280;75312;47.528;19.016;2024-02-15T01:54:44;99634.19;;;7.59;69.33
84995;BME280;75312;47.528;19.016;2024-02-15T01:55:17;99630.38;;;7.63;68.76
84995;BME280;75312;47.528;19.016;2024-02-15T01:55:48;99633.75;;;7.65;68.96
84995;BME280;75312;47.528;19.016;2024-02-15T01:56:19;99630.28;;;7.65;69.03
84995;BME280;75312;47.528;19.016;2024-02-15T01:56:53;99628.28;;;7.68;69.02
84995;BME280;75312;47.528;19.016;2024-02-15T01:57:24;99624.72;;;7.69;68.36
84995;BME280;75312;47.528;19.016;2024-02-15T01:57:55;99624.59;;;7.71;68.46
84995;BME280;75312;47.528;19.016;2024-02-15T01:58:29;99626.13;;;7.73;68.46
84995;BME280;75312;47.528;19.016;2024-02-15T01:59:05;99627.56;;;7.66;68.49
84995;BME280;75312;47.528;19.016;2024-02-15T01:59:36;99625.78;;;7.67;69.02
84995;BME280;75312;47.528;19.016;2024-02-15T02:00:07;99624.13;;;7.66;69.15
84995;BME280;75312;47.528;19.016;2024-02-15T02:00:39;99622.94;;;7.58;69.19
84995;BME280;75312;47.528;19.016;2024-02-15T02:01:11;99626.00;;;7.52;69.19
84995;BME280;75312;47.528;19.016;2024-02-15T02:01:42;99620.78;;;7.52;69.33
84995;BME280;75312;47.528;19.016;2024-02-15T02:02:15;99629.31;;;7.54;69.42
84995;BME280;75312;47.528;19.016;2024-02-15T02:02:47;99629.81;;;7.59;69.38
84995;BME280;75312;47.528;19.016;2024-02-15T02:03:21;99629.69;;;7.61;69.18
84995;BME280;75312;47.528;19.016;2024-02-15T02:03:52;99628.34;;;7.55;68.78
84995;BME280;75312;47.528;19.016;2024-02-15T02:04:23;99627.41;;;7.56;68.99
84995;BME280;75312;47.528;19.016;2024-02-15T02:04:53;99624.59;;;7.59;68.83
84995;BME280;75312;47.528;19.016;2024-02-15T02:05:27;99626.25;;;7.60;68.89
84995;BME280;75312;47.528;19.016;2024-02-15T02:06:03;99622.44;;;7.65;68.95
84995;BME280;75312;47.528;19.016;2024-02-15T02:06:39;99626.75;;;7.66;68.87
84995;BME280;75312;47.528;19.016;2024-02-15T02:07:11;99622.44;;;7.65;69.18
84995;BME280;75312;47.528;19.016;2024-02-15T02:07:42;99623.63;;;7.60;68.93
84995;BME280;75312;47.528;19.016;2024-02-15T02:08:17;99621.63;;;7.64;68.80
84995;BME280;75312;47.528;19.016;2024-02-15T02:08:50;99626.63;;;7.67;68.81
84995;BME280;75312;47.528;19.016;2024-02-15T02:09:28;99622.56;;;7.63;69.29
84995;BME280;75312;47.528;19.016;2024-02-15T02:10:04;99619.00;;;7.64;69.56
84995;BME280;75312;47.528;19.016;2024-02-15T02:10:37;99618.19;;;7.63;69.60
84995;BME280;75312;47.528;19.016;2024-02-15T02:11:08;99615.94;;;7.59;69.19
84995;BME280;75312;47.528;19.016;2024-02-15T02:11:38;99617.09;;;7.55;69.41
84995;BME280;75312;47.528;19.016;2024-02-15T02:12:09;99619.81;;;7.53;69.99
84995;BME280;75312;47.528;19.016;2024-02-15T02:12:45;99618.28;;;7.51;69.95
84995;BME280;75312;47.528;19.016;2024-02-15T02:13:16;99618.88;;;7.54;69.67
84995;BME280;75312;47.528;19.016;2024-02-15T02:13:46;99621.47;;;7.54;69.55
84995;BME280;75312;47.528;19.016;2024-02-15T02:14:17;99619.00;;;7.53;69.38
84995;BME280;75312;47.528;19.016;2024-02-15T02:14:53;99617.59;;;7.49;69.62
84995;BME280;75312;47.528;19.016;2024-02-15T02:15:26;99611.59;;;7.36;69.80
84995;BME280;75312;47.528;19.016;2024-02-15T02:15:58;99612.00;;;7.42;69.90
84995;BME280;75312;47.528;19.016;2024-02-15T02:16:31;99607.81;;;7.40;69.46
84995;BME280;75312;47.528;19.016;2024-02-15T02:17:15;99619.56;;;7.45;69.82
84995;BME280;75312;47.528;19.016;2024-02-15T02:17:49;99609.16;;;7.45;69.95
84995;BME280;75312;47.528;19.016;2024-02-15T02:18:25;99607.50;;;7.44;69.55
84995;BME280;75312;47.528;19.016;2024-02-15T02:18:56;99611.88;;;7.44;70.18
84995;BME280;75312;47.528;19.016;2024-02-15T02:19:27;99601.69;;;7.41;70.18
84995;BME280;75312;47.528;19.016;2024-02-15T02:19:58;99608.69;;;7.40;69.57
84995;BME280;75312;47.528;19.016;2024-02-15T02:20:31;99604.38;;;7.39;69.90
84995;BME280;75312;47.528;19.016;2024-02-15T02:21:02;99604.38;;;7.39;70.48
84995;BME280;75312;47.528;19.016;2024-02-15T02:21:36;99606.28;;;7.37;70.05
84995;BME280;75312;47.528;19.016;2024-02-15T02:22:11;99607.09;;;7.38;70.22
84995;BME280;75312;47.528;19.016;2024-02-15T02:22:46;99604.63;;;7.36;70.09
84995;BME280;75312;47.528;19.016;2024-02-15T02:23:26;99604.97;;;7.31;69.99
84995;BME280;75312;47.528;19.016;2024-02-15T02:24:03;99606.13;;;7.27;70.22
84995;BME280;75312;47.528;19.016;2024-02-15T02:25:05;99613.13;;;7.27;71.03
84995;BME280;75312;47.528;19.016;2024-02-15T02:25:36;99608.03;;;7.25;70.50
84995;BME280;75312;47.528;19.016;2024-02-15T02:26:10;99608.25;;;7.22;70.95
84995;BME280;75312;47.528;19.016;2024-02-15T02:26:41;99606.59;;;7.21;70.18
84995;BME280;75312;47.528;19.016;2024-02-15T02:27:13;99610.84;;;7.22;70.38
84995;BME280;75312;47.528;19.016;2024-02-15T02:27:44;99610.50;;;7.16;70.60
84995;BME280;75312;47.528;19.016;2024-02-15T02:28:17;99606.22;;;7.15;71.04
84995;BME280;75312;47.528;19.016;2024-02-15T02:28:49;99611.44;;;7.15;70.62
84995;BME280;75312;47.528;19.016;2024-02-15T02:29:22;99612.16;;;7.17;70.46
84995;BME280;75312;47.528;19.016;2024-02-15T02:29:53;99615.59;;;7.17;70.39
84995;BME280;75312;47.528;19.016;2024-02-15T02:30:26;99612.97;;;7.17;70.77
84995;BME280;75312;47.528;19.016;2024-02-15T02:31:00;99611.44;;;7.15;70.68
84995;BME280;75312;47.528;19.016;2024-02-15T02:31:36;99609.53;;;7.17;70.76
84995;BME280;75312;47.528;19.016;2024-02-15T02:32:07;99604.34;;;7.17;70.36
84995;BME280;75312;47.528;19.016;2024-02-15T02:32:38;99608.59;;;7.18;70.40
84995;BME280;75312;47.528;19.016;2024-02-15T02:33:12;99606.22;;;7.15;70.37
84995;BME280;75312;47.528;19.016;2024-02-15T02:33:52;99613.41;;;7.11;70.29
84995;BME280;75312;47.528;19.016;2024-02-15T02:34:28;99610.00;;;7.11;70.30
84995;BME280;75312;47.528;19.016;2024-02-15T02:35:02;99609.53;;;7.17;70.17
84995;BME280;75312;47.528;19.016;2024-02-15T02:35:33;99612.84;;;7.19;70.28
84995;BME280;75312;47.528;19.016;2024-02-15T02:36:04;99612.28;;;7.15;70.32
84995;BME280;75312;47.528;19.016;2024-02-15T02:36:43;99608.84;;;7.15;70.15
84995;BME280;75312;47.528;19.016;2024-02-15T02:37:14;99604.34;;;7.17;70.47
84995;BME280;75312;47.528;19.016;2024-02-15T02:37:45;99599.59;;;7.22;70.05
84995;BME280;75312;47.528;19.016;2024-02-15T02:38:16;99603.97;;;7.21;69.88
84995;BME280;75312;47.528;19.016;2024-02-15T02:38:47;99608.72;;;7.16;70.11
84995;BME280;75312;47.528;19.016;2024-02-15T02:39:20;99615.59;;;7.17;69.85
84995;BME280;75312;47.528;19.016;2024-02-15T02:39:53;99613.81;;;7.18;70.20
84995;BME280;75312;47.528;19.016;2024-02-15T02:40:23;99602.19;;;7.22;69.29
84995;BME280;75312;47.528;19.016;2024-02-15T02:40:54;99613.56;;;7.21;69.50
84995;BME280;75312;47.528;19.016;2024-02-15T02:41:25;99610.84;;;7.22;69.32
84995;BME280;75312;47.528;19.016;2024-02-15T02:41:55;99607.78;;;7.17;69.93
84995;BME280;75312;47.528;19.016;2024-02-15T02:42:28;99610.38;;;7.17;69.94
84995;BME280;75312;47.528;19.016;2024-02-15T02:42:58;99614.03;;;7.15;70.29
84995;BME280;75312;47.528;19.016;2024-02-15T02:43:30;99609.66;;;7.15;70.14
84995;BME280;75312;47.528;19.016;2024-02-15T02:44:00;99608.72;;;7.16;69.81
84995;BME280;75312;47.528;19.016;2024-02-15T02:44:31;99612.75;;;7.20;69.88
84995;BME280;75312;47.528;19.016;2024-02-15T02:45:01;99611.78;;;7.21;69.59
84995;BME280;75312;47.528;19.016;2024-02-15T02:45:34;99603.84;;;7.23;69.64
84995;BME280;75312;47.528;19.016;2024-02-15T02:46:05;99613.38;;;7.24;70.25
84995;BME280;75312;47.528;19.016;2024-02-15T02:46:36;99613.25;;;7.25;69.60
84995;BME280;75312;47.528;19.016;2024-02-15T02:47:07;99605.44;;;7.25;70.00
84995;BME280;75312;47.528;19.016;2024-02-15T02:47:43;99614.06;;;7.26;70.23
84995;BME280;75312;47.528;19.016;2024-02-15T02:48:17;99609.56;;;7.28;69.92
84995;BME280;75312;47.528;19.016;2024-02-15T02:48:48;99608.63;;;7.29;70.05
84995;BME280;75312;47.528;19.016;2024-02-15T02:49:19;99606.97;;;7.28;70.20
84995;BME280;75312;47.528;19.016;2024-02-15T02:49:49;99614.91;;;7.26;70.40
84995;BME280;75312;47.528;19.016;2024-02-15T02:50:25;99610.41;;;7.28;69.93
84995;BME280;75312;47.528;19.016;2024-02-15T02:50:56;99605.06;;;7.30;70.48
84995;BME280;75312;47.528;19.016;2024-02-15T02:51:27;99614.06;;;7.26;69.86
84995;BME280;75312;47.528;19.016;2024-02-15T02:51:57;99606.97;;;7.28;70.04